sensor_id;sensor_type;location;lat;lon;timestamp;temperature;humidity
19862;DHT22;10093;48.148;8.542;2023-08-06T00:00:07;12.40;99.90
19862;DHT22;10093;48.148;8.542;2023-08-06T00:02:33;12.30;99.90
19862;DHT22;10093;48.148;8.542;2023-08-06T00:04:59;12.30;99.90
19862;DHT22;10093;48.148;8.542;2023-08-06T00:07:24;12.30;99.90
19862;DHT22;10093;48.148;8.542;2023-08-06T00:09:50;12.30;99.90
19862;DHT22;10093;48.148;8.542;2023-08-06T00:12:16;12.30;99.90
19862;DHT22;10093;48.148;8.542;2023-08-06T00:14:41;12.20;99.90
19862;DHT22;10093;48.148;8.542;2023-08-06T00:17:07;12.10;99.90
19862;DHT22;10093;48.148;8.542;2023-08-06T00:19:33;11.90;99.90
19862;DHT22;10093;48.148;8.542;2023-08-06T00:21:59;11.70;99.90
19862;DHT22;10093;48.148;8.542;2023-08-06T00:24:24;11.60;99.90
19862;DHT22;10093;48.148;8.542;2023-08-06T00:26:50;11.40;99.90
19862;DHT22;10093;48.148;8.542;2023-08-06T00:29:16;11.30;99.90
19862;DHT22;10093;48.148;8.542;2023-08-06T00:31:41;11.50;99.90
19862;DHT22;10093;48.148;8.542;2023-08-06T00:34:07;11.90;99.90
19862;DHT22;10093;48.148;8.542;2023-08-06T00:36:32;12.00;99.90
19862;DHT22;10093;48.148;8.542;2023-08-06T00:38:58;12.20;99.90
19862;DHT22;10093;48.148;8.542;2023-08-06T00:41:24;12.30;99.90
19862;DHT22;10093;48.148;8.542;2023-08-06T00:43:49;12.30;99.90
19862;DHT22;10093;48.148;8.542;2023-08-06T00:46:15;12.30;99.90
19862;DHT22;10093;48.148;8.542;2023-08-06T00:48:41;12.20;99.90
19862;DHT22;10093;48.148;8.542;2023-08-06T00:51:10;12.10;99.90
19862;DHT22;10093;48.148;8.542;2023-08-06T00:53:37;12.10;99.90
19862;DHT22;10093;48.148;8.542;2023-08-06T00:56:03;12.10;99.90
19862;DHT22;10093;48.148;8.542;2023-08-06T00:58:29;12.00;99.90
19862;DHT22;10093;48.148;8.542;2023-08-06T01:00:54;12.10;99.90
19862;DHT22;10093;48.148;8.542;2023-08-06T01:03:20;12.10;99.90
19862;DHT22;10093;48.148;8.542;2023-08-06T01:05:46;12.10;99.90
19862;DHT22;10093;48.148;8.542;2023-08-06T01:11:01;12.00;99.90
19862;DHT22;10093;48.148;8.542;2023-08-06T01:13:53;12.00;99.90
19862;DHT22;10093;48.148;8.542;2023-08-06T01:16:21;11.70;99.90
19862;DHT22;10093;48.148;8.542;2023-08-06T01:18:48;11.70;99.90
19862;DHT22;10093;48.148;8.542;2023-08-06T01:21:17;11.60;99.90
19862;DHT22;10093;48.148;8.542;2023-08-06T01:23:43;11.60;99.90
19862;DHT22;10093;48.148;8.542;2023-08-06T01:29:14;11.40;99.90
19862;DHT22;10093;48.148;8.542;2023-08-06T01:31:43;11.40;99.90
19862;DHT22;10093;48.148;8.542;2023-08-06T01:34:13;11.10;99.90
19862;DHT22;10093;48.148;8.542;2023-08-06T01:36:41;11.20;99.90
19862;DHT22;10093;48.148;8.542;2023-08-06T01:39:07;11.10;99.90
19862;DHT22;10093;48.148;8.542;2023-08-06T01:41:33;11.10;99.90
19862;DHT22;10093;48.148;8.542;2023-08-06T01:43:58;11.10;99.90
19862;DHT22;10093;48.148;8.542;2023-08-06T01:46:24;11.10;99.90
19862;DHT22;10093;48.148;8.542;2023-08-06T01:48:49;11.00;99.90
19862;DHT22;10093;48.148;8.542;2023-08-06T01:51:15;10.90;99.90
19862;DHT22;10093;48.148;8.542;2023-08-06T01:53:41;11.00;99.90
19862;DHT22;10093;48.148;8.542;2023-08-06T01:56:06;11.10;99.90
19862;DHT22;10093;48.148;8.542;2023-08-06T01:58:32;11.10;99.90
19862;DHT22;10093;48.148;8.542;2023-08-06T02:00:57;11.00;99.90
19862;DHT22;10093;48.148;8.542;2023-08-06T02:03:23;10.90;99.90
19862;DHT22;10093;48.148;8.542;2023-08-06T02:05:48;10.90;99.90
19862;DHT22;10093;48.148;8.542;2023-08-06T02:08:14;11.00;99.90
19862;DHT22;10093;48.148;8.542;2023-08-06T02:10:40;11.10;99.90
19862;DHT22;10093;48.148;8.542;2023-08-06T02:13:06;11.10;99.90
19862;DHT22;10093;48.148;8.542;2023-08-06T02:15:32;11.10;99.90
19862;DHT22;10093;48.148;8.542;2023-08-06T02:17:58;11.10;99.90
19862;DHT22;10093;48.148;8.542;2023-08-06T02:20:23;11.10;99.90
19862;DHT22;10093;48.148;8.542;2023-08-06T02:22:49;11.10;99.90
19862;DHT22;10093;48.148;8.542;2023-08-06T02:25:15;11.20;99.90
19862;DHT22;10093;48.148;8.542;2023-08-06T02:27:40;11.20;99.90
19862;DHT22;10093;48.148;8.542;2023-08-06T02:30:06;11.30;99.90
19862;DHT22;10093;48.148;8.542;2023-08-06T02:32:32;11.30;99.90
19862;DHT22;10093;48.148;8.542;2023-08-06T02:35:01;11.30;99.90
19862;DHT22;10093;48.148;8.542;2023-08-06T02:37:27;11.30;99.90
19862;DHT22;10093;48.148;8.542;2023-08-06T02:39:53;11.40;99.90
19862;DHT22;10093;48.148;8.542;2023-08-06T02:42:18;11.50;99.90
19862;DHT22;10093;48.148;8.542;2023-08-06T02:44:44;11.60;99.90
19862;DHT22;10093;48.148;8.542;2023-08-06T02:47:09;11.60;99.90
19862;DHT22;10093;48.148;8.542;2023-08-06T02:49:35;11.50;99.90
19862;DHT22;10093;48.148;8.542;2023-08-06T02:52:00;11.60;99.90
19862;DHT22;10093;48.148;8.542;2023-08-06T02:54:26;11.60;99.90
19862;DHT22;10093;48.148;8.542;2023-08-06T02:56:52;11.50;99.90
19862;DHT22;10093;48.148;8.542;2023-08-06T02:59:17;11.50;99.90
19862;DHT22;10093;48.148;8.542;2023-08-06T03:01:43;11.50;99.90
19862;DHT22;10093;48.148;8.542;2023-08-06T03:04:08;11.40;99.90
19862;DHT22;10093;48.148;8.542;2023-08-06T03:06:34;11.40;99.90
19862;DHT22;10093;48.148;8.542;2023-08-06T03:09:00;11.40;99.90
19862;DHT22;10093;48.148;8.542;2023-08-06T03:11:25;11.40;99.90
19862;DHT22;10093;48.148;8.542;2023-08-06T03:13:51;11.30;99.90
19862;DHT22;10093;48.148;8.542;2023-08-06T03:16:16;11.30;99.90
19862;DHT22;10093;48.148;8.542;2023-08-06T03:18:42;11.30;99.90
19862;DHT22;10093;48.148;8.542;2023-08-06T03:21:07;11.30;99.90
19862;DHT22;10093;48.148;8.542;2023-08-06T03:23:33;11.30;99.90
19862;DHT22;10093;48.148;8.542;2023-08-06T03:26:03;11.30;99.90
19862;DHT22;10093;48.148;8.542;2023-08-06T03:28:29;11.30;99.90
19862;DHT22;10093;48.148;8.542;2023-08-06T03:31:01;11.50;99.90
19862;DHT22;10093;48.148;8.542;2023-08-06T03:33:27;11.60;99.90
19862;DHT22;10093;48.148;8.542;2023-08-06T03:35:53;11.80;99.90
19862;DHT22;10093;48.148;8.542;2023-08-06T03:38:18;11.90;99.90
19862;DHT22;10093;48.148;8.542;2023-08-06T03:40:44;11.80;99.90
19862;DHT22;10093;48.148;8.542;2023-08-06T03:43:09;11.80;99.90
19862;DHT22;10093;48.148;8.542;2023-08-06T03:45:35;11.80;99.90
19862;DHT22;10093;48.148;8.542;2023-08-06T03:48:01;11.80;99.90
19862;DHT22;10093;48.148;8.542;2023-08-06T03:50:26;11.80;99.90
19862;DHT22;10093;48.148;8.542;2023-08-06T03:52:52;11.80;99.90
19862;DHT22;10093;48.148;8.542;2023-08-06T03:55:17;11.60;99.90
19862;DHT22;10093;48.148;8.542;2023-08-06T03:57:43;11.60;99.90
19862;DHT22;10093;48.148;8.542;2023-08-06T04:00:09;11.50;99.90
19862;DHT22;10093;48.148;8.542;2023-08-06T04:02:34;11.40;99.90
19862;DHT22;10093;48.148;8.542;2023-08-06T04:05:01;11.40;99.90
19862;DHT22;10093;48.148;8.542;2023-08-06T04:07:27;11.30;99.90
19862;DHT22;10093;48.148;8.542;2023-08-06T04:09:58;11.20;99.90
19862;DHT22;10093;48.148;8.542;2023-08-06T04:12:24;11.20;99.90
19862;DHT22;10093;48.148;8.542;2023-08-06T04:14:51;11.10;99.90
19862;DHT22;10093;48.148;8.542;2023-08-06T04:17:20;11.10;99.90
19862;DHT22;10093;48.148;8.542;2023-08-06T04:19:51;11.10;99.90
19862;DHT22;10093;48.148;8.542;2023-08-06T04:22:17;11.10;99.90
19862;DHT22;10093;48.148;8.542;2023-08-06T04:24:43;11.10;99.90
19862;DHT22;10093;48.148;8.542;2023-08-06T04:27:10;10.90;99.90
19862;DHT22;10093;48.148;8.542;2023-08-06T04:29:36;10.90;99.90
19862;DHT22;10093;48.148;8.542;2023-08-06T04:32:03;10.90;99.90
19862;DHT22;10093;48.148;8.542;2023-08-06T04:34:29;10.90;99.90
19862;DHT22;10093;48.148;8.542;2023-08-06T04:36:54;11.00;99.90
19862;DHT22;10093;48.148;8.542;2023-08-06T04:39:20;11.00;99.90
19862;DHT22;10093;48.148;8.542;2023-08-06T04:41:46;11.10;99.90
19862;DHT22;10093;48.148;8.542;2023-08-06T04:44:11;11.10;99.90
19862;DHT22;10093;48.148;8.542;2023-08-06T04:46:37;11.00;99.90
19862;DHT22;10093;48.148;8.542;2023-08-06T04:49:02;11.00;99.90
19862;DHT22;10093;48.148;8.542;2023-08-06T04:51:28;11.00;99.90
19862;DHT22;10093;48.148;8.542;2023-08-06T04:53:53;11.10;99.90
19862;DHT22;10093;48.148;8.542;2023-08-06T04:56:19;11.10;99.90
19862;DHT22;10093;48.148;8.542;2023-08-06T04:58:45;11.20;99.90
19862;DHT22;10093;48.148;8.542;2023-08-06T05:01:10;11.30;99.90
19862;DHT22;10093;48.148;8.542;2023-08-06T05:03:36;11.40;99.90
19862;DHT22;10093;48.148;8.542;2023-08-06T05:06:01;11.40;99.90
19862;DHT22;10093;48.148;8.542;2023-08-06T05:08:27;11.50;99.90
19862;DHT22;10093;48.148;8.542;2023-08-06T05:10:53;11.60;99.90
19862;DHT22;10093;48.148;8.542;2023-08-06T05:13:18;11.60;99.90
19862;DHT22;10093;48.148;8.542;2023-08-06T05:15:44;11.70;99.90
19862;DHT22;10093;48.148;8.542;2023-08-06T05:18:11;11.60;99.90
19862;DHT22;10093;48.148;8.542;2023-08-06T05:20:38;11.70;99.90
19862;DHT22;10093;48.148;8.542;2023-08-06T05:23:04;11.70;99.90
19862;DHT22;10093;48.148;8.542;2023-08-06T05:25:30;11.90;99.90
19862;DHT22;10093;48.148;8.542;2023-08-06T05:27:55;12.10;99.90
19862;DHT22;10093;48.148;8.542;2023-08-06T05:30:21;12.10;99.90
19862;DHT22;10093;48.148;8.542;2023-08-06T05:32:47;12.20;99.90
19862;DHT22;10093;48.148;8.542;2023-08-06T05:35:12;12.20;99.90
19862;DHT22;10093;48.148;8.542;2023-08-06T05:37:38;12.20;99.90
19862;DHT22;10093;48.148;8.542;2023-08-06T05:40:04;12.20;99.90
19862;DHT22;10093;48.148;8.542;2023-08-06T05:42:30;12.40;99.90
19862;DHT22;10093;48.148;8.542;2023-08-06T05:44:56;12.60;99.90
19862;DHT22;10093;48.148;8.542;2023-08-06T05:47:21;12.90;99.90
19862;DHT22;10093;48.148;8.542;2023-08-06T05:49:47;13.10;99.90
19862;DHT22;10093;48.148;8.542;2023-08-06T05:52:13;13.30;99.90
19862;DHT22;10093;48.148;8.542;2023-08-06T05:54:38;13.30;99.90
19862;DHT22;10093;48.148;8.542;2023-08-06T05:57:06;13.30;99.90
19862;DHT22;10093;48.148;8.542;2023-08-06T05:59:32;13.20;99.90
19862;DHT22;10093;48.148;8.542;2023-08-06T06:01:57;13.20;99.90
19862;DHT22;10093;48.148;8.542;2023-08-06T06:04:23;13.00;99.90
19862;DHT22;10093;48.148;8.542;2023-08-06T06:06:48;12.60;99.90
19862;DHT22;10093;48.148;8.542;2023-08-06T06:09:14;12.60;99.90
19862;DHT22;10093;48.148;8.542;2023-08-06T06:11:40;12.30;99.90
19862;DHT22;10093;48.148;8.542;2023-08-06T06:14:05;12.30;99.90
19862;DHT22;10093;48.148;8.542;2023-08-06T06:16:31;12.30;99.90
19862;DHT22;10093;48.148;8.542;2023-08-06T06:18:56;12.30;99.90
19862;DHT22;10093;48.148;8.542;2023-08-06T06:21:23;12.30;99.90
19862;DHT22;10093;48.148;8.542;2023-08-06T06:23:49;12.20;99.90
19862;DHT22;10093;48.148;8.542;2023-08-06T06:26:19;12.20;99.90
19862;DHT22;10093;48.148;8.542;2023-08-06T06:28:45;12.30;99.90
19862;DHT22;10093;48.148;8.542;2023-08-06T06:31:11;12.40;99.90
19862;DHT22;10093;48.148;8.542;2023-08-06T06:33:36;12.60;99.90
19862;DHT22;10093;48.148;8.542;2023-08-06T06:36:02;12.80;99.90
19862;DHT22;10093;48.148;8.542;2023-08-06T06:38:29;12.90;99.90
19862;DHT22;10093;48.148;8.542;2023-08-06T06:40:55;13.00;99.90
19862;DHT22;10093;48.148;8.542;2023-08-06T06:43:22;12.80;99.90
19862;DHT22;10093;48.148;8.542;2023-08-06T06:45:51;12.80;99.90
19862;DHT22;10093;48.148;8.542;2023-08-06T06:48:17;12.80;99.90
19862;DHT22;10093;48.148;8.542;2023-08-06T06:50:46;13.00;99.90
19862;DHT22;10093;48.148;8.542;2023-08-06T06:53:12;13.20;99.90
19862;DHT22;10093;48.148;8.542;2023-08-06T06:55:37;13.60;99.90
19862;DHT22;10093;48.148;8.542;2023-08-06T06:58:03;13.90;99.90
19862;DHT22;10093;48.148;8.542;2023-08-06T07:00:29;14.00;99.90
19862;DHT22;10093;48.148;8.542;2023-08-06T07:02:54;14.20;99.90
19862;DHT22;10093;48.148;8.542;2023-08-06T07:05:20;14.30;99.90
19862;DHT22;10093;48.148;8.542;2023-08-06T07:07:45;14.50;99.90
19862;DHT22;10093;48.148;8.542;2023-08-06T07:10:11;14.50;99.90
19862;DHT22;10093;48.148;8.542;2023-08-06T07:12:37;14.00;99.90
19862;DHT22;10093;48.148;8.542;2023-08-06T07:15:05;13.30;99.90
19862;DHT22;10093;48.148;8.542;2023-08-06T07:17:31;12.80;99.90
19862;DHT22;10093;48.148;8.542;2023-08-06T07:19:57;12.60;99.90
19862;DHT22;10093;48.148;8.542;2023-08-06T07:22:22;12.50;99.90
19862;DHT22;10093;48.148;8.542;2023-08-06T07:24:48;12.50;99.90
19862;DHT22;10093;48.148;8.542;2023-08-06T07:27:14;12.50;99.90
19862;DHT22;10093;48.148;8.542;2023-08-06T07:29:39;12.50;99.90
19862;DHT22;10093;48.148;8.542;2023-08-06T07:32:06;12.50;99.90
19862;DHT22;10093;48.148;8.542;2023-08-06T07:34:32;12.50;99.90
19862;DHT22;10093;48.148;8.542;2023-08-06T07:36:58;12.50;99.90
19862;DHT22;10093;48.148;8.542;2023-08-06T07:39:24;12.50;99.90
19862;DHT22;10093;48.148;8.542;2023-08-06T07:41:50;12.40;99.90
19862;DHT22;10093;48.148;8.542;2023-08-06T07:44:15;12.20;99.90
19862;DHT22;10093;48.148;8.542;2023-08-06T07:46:41;12.10;99.90
19862;DHT22;10093;48.148;8.542;2023-08-06T07:49:07;12.20;99.90
19862;DHT22;10093;48.148;8.542;2023-08-06T07:51:33;12.30;99.90
19862;DHT22;10093;48.148;8.542;2023-08-06T07:53:58;12.40;99.90
19862;DHT22;10093;48.148;8.542;2023-08-06T07:56:24;12.30;99.90
19862;DHT22;10093;48.148;8.542;2023-08-06T07:58:49;12.30;99.90
19862;DHT22;10093;48.148;8.542;2023-08-06T08:01:15;12.40;99.90
19862;DHT22;10093;48.148;8.542;2023-08-06T08:03:41;12.50;99.90
19862;DHT22;10093;48.148;8.542;2023-08-06T08:06:06;12.40;99.90
19862;DHT22;10093;48.148;8.542;2023-08-06T08:08:32;12.40;99.90
19862;DHT22;10093;48.148;8.542;2023-08-06T08:10:58;12.40;99.90
19862;DHT22;10093;48.148;8.542;2023-08-06T08:13:26;12.50;99.90
19862;DHT22;10093;48.148;8.542;2023-08-06T08:15:59;12.40;99.90
19862;DHT22;10093;48.148;8.542;2023-08-06T08:18:25;12.40;99.90
19862;DHT22;10093;48.148;8.542;2023-08-06T08:20:51;12.30;99.90
19862;DHT22;10093;48.148;8.542;2023-08-06T08:23:16;12.40;99.90
19862;DHT22;10093;48.148;8.542;2023-08-06T08:25:42;12.30;99.90
19862;DHT22;10093;48.148;8.542;2023-08-06T08:28:08;12.40;99.90
19862;DHT22;10093;48.148;8.542;2023-08-06T08:30:33;12.60;99.90
19862;DHT22;10093;48.148;8.542;2023-08-06T08:32:59;12.80;99.90
19862;DHT22;10093;48.148;8.542;2023-08-06T08:35:25;13.30;99.90
19862;DHT22;10093;48.148;8.542;2023-08-06T08:37:50;13.40;99.90
19862;DHT22;10093;48.148;8.542;2023-08-06T08:40:16;13.50;99.90
19862;DHT22;10093;48.148;8.542;2023-08-06T08:42:43;13.70;99.90
19862;DHT22;10093;48.148;8.542;2023-08-06T08:45:12;13.80;99.90
19862;DHT22;10093;48.148;8.542;2023-08-06T08:47:43;14.30;99.90
19862;DHT22;10093;48.148;8.542;2023-08-06T08:50:09;14.40;99.90
19862;DHT22;10093;48.148;8.542;2023-08-06T08:52:38;14.20;99.90
19862;DHT22;10093;48.148;8.542;2023-08-06T08:55:07;14.20;99.90
19862;DHT22;10093;48.148;8.542;2023-08-06T08:57:33;14.30;99.90
19862;DHT22;10093;48.148;8.542;2023-08-06T08:59:58;14.10;99.90
19862;DHT22;10093;48.148;8.542;2023-08-06T09:02:25;13.90;99.90
19862;DHT22;10093;48.148;8.542;2023-08-06T09:04:54;13.80;99.90
19862;DHT22;10093;48.148;8.542;2023-08-06T09:07:21;13.80;99.90
19862;DHT22;10093;48.148;8.542;2023-08-06T09:09:49;13.90;99.90
19862;DHT22;10093;48.148;8.542;2023-08-06T09:12:16;14.30;99.90
19862;DHT22;10093;48.148;8.542;2023-08-06T09:14:42;14.50;99.90
19862;DHT22;10093;48.148;8.542;2023-08-06T09:17:08;14.70;99.90
19862;DHT22;10093;48.148;8.542;2023-08-06T09:19:36;14.90;99.90
19862;DHT22;10093;48.148;8.542;2023-08-06T09:22:02;15.10;99.90
19862;DHT22;10093;48.148;8.542;2023-08-06T09:24:27;15.40;99.90
19862;DHT22;10093;48.148;8.542;2023-08-06T09:26:53;15.30;99.90
19862;DHT22;10093;48.148;8.542;2023-08-06T09:29:19;15.00;99.90
19862;DHT22;10093;48.148;8.542;2023-08-06T09:31:48;14.60;99.90
19862;DHT22;10093;48.148;8.542;2023-08-06T09:34:17;14.50;99.90
19862;DHT22;10093;48.148;8.542;2023-08-06T09:36:46;14.20;99.90
19862;DHT22;10093;48.148;8.542;2023-08-06T09:39:16;13.90;99.90
19862;DHT22;10093;48.148;8.542;2023-08-06T09:41:42;13.90;99.90
19862;DHT22;10093;48.148;8.542;2023-08-06T09:44:21;13.80;99.90
19862;DHT22;10093;48.148;8.542;2023-08-06T09:46:49;13.90;99.90
19862;DHT22;10093;48.148;8.542;2023-08-06T09:49:15;14.10;99.90
19862;DHT22;10093;48.148;8.542;2023-08-06T09:51:41;14.30;99.90
19862;DHT22;10093;48.148;8.542;2023-08-06T09:54:08;14.40;99.90
19862;DHT22;10093;48.148;8.542;2023-08-06T09:56:37;14.40;99.90
19862;DHT22;10093;48.148;8.542;2023-08-06T09:59:06;14.40;99.90
19862;DHT22;10093;48.148;8.542;2023-08-06T10:01:33;14.20;99.90
19862;DHT22;10093;48.148;8.542;2023-08-06T10:04:00;14.00;99.90
19862;DHT22;10093;48.148;8.542;2023-08-06T10:06:28;13.90;99.90
19862;DHT22;10093;48.148;8.542;2023-08-06T10:08:54;13.90;99.90
19862;DHT22;10093;48.148;8.542;2023-08-06T10:11:22;13.90;99.90
19862;DHT22;10093;48.148;8.542;2023-08-06T10:13:52;14.10;99.90
19862;DHT22;10093;48.148;8.542;2023-08-06T10:16:27;14.30;99.90
19862;DHT22;10093;48.148;8.542;2023-08-06T10:18:54;14.50;99.90
19862;DHT22;10093;48.148;8.542;2023-08-06T10:21:20;14.50;99.90
19862;DHT22;10093;48.148;8.542;2023-08-06T10:23:54;14.40;99.90
19862;DHT22;10093;48.148;8.542;2023-08-06T10:26:20;14.70;99.90
19862;DHT22;10093;48.148;8.542;2023-08-06T10:28:45;15.00;99.90
19862;DHT22;10093;48.148;8.542;2023-08-06T10:31:11;15.10;99.90
19862;DHT22;10093;48.148;8.542;2023-08-06T10:33:46;15.00;99.90
19862;DHT22;10093;48.148;8.542;2023-08-06T10:36:13;14.60;99.90
19862;DHT22;10093;48.148;8.542;2023-08-06T10:38:50;14.20;99.90
19862;DHT22;10093;48.148;8.542;2023-08-06T10:43:48;14.40;99.90
19862;DHT22;10093;48.148;8.542;2023-08-06T10:46:29;14.90;99.90
19862;DHT22;10093;48.148;8.542;2023-08-06T10:48:54;15.30;99.90
19862;DHT22;10093;48.148;8.542;2023-08-06T10:51:20;15.10;99.90
19862;DHT22;10093;48.148;8.542;2023-08-06T10:53:47;14.80;99.90
19862;DHT22;10093;48.148;8.542;2023-08-06T10:56:20;14.50;99.90
19862;DHT22;10093;48.148;8.542;2023-08-06T10:58:48;14.70;99.90
19862;DHT22;10093;48.148;8.542;2023-08-06T11:01:14;15.00;99.90
19862;DHT22;10093;48.148;8.542;2023-08-06T11:03:42;14.90;99.90
19862;DHT22;10093;48.148;8.542;2023-08-06T11:06:08;15.10;99.90
19862;DHT22;10093;48.148;8.542;2023-08-06T11:08:35;15.10;99.90
19862;DHT22;10093;48.148;8.542;2023-08-06T11:11:12;14.90;99.90
19862;DHT22;10093;48.148;8.542;2023-08-06T11:13:39;14.70;99.90
19862;DHT22;10093;48.148;8.542;2023-08-06T11:16:06;14.70;99.90
19862;DHT22;10093;48.148;8.542;2023-08-06T11:18:32;14.50;99.90
19862;DHT22;10093;48.148;8.542;2023-08-06T11:20:59;14.60;99.90
19862;DHT22;10093;48.148;8.542;2023-08-06T11:23:29;14.40;99.90
19862;DHT22;10093;48.148;8.542;2023-08-06T11:25:58;14.30;99.90
19862;DHT22;10093;48.148;8.542;2023-08-06T11:28:24;14.10;99.90
19862;DHT22;10093;48.148;8.542;2023-08-06T11:30:51;13.70;99.90
19862;DHT22;10093;48.148;8.542;2023-08-06T11:33:21;13.60;99.90
19862;DHT22;10093;48.148;8.542;2023-08-06T11:35:48;13.50;99.90
19862;DHT22;10093;48.148;8.542;2023-08-06T11:38:14;13.50;99.90
19862;DHT22;10093;48.148;8.542;2023-08-06T11:40:39;13.60;99.90
19862;DHT22;10093;48.148;8.542;2023-08-06T11:43:09;13.90;99.90
19862;DHT22;10093;48.148;8.542;2023-08-06T11:45:38;14.20;99.90
19862;DHT22;10093;48.148;8.542;2023-08-06T11:48:03;14.20;99.90
19862;DHT22;10093;48.148;8.542;2023-08-06T11:50:30;14.20;99.90
19862;DHT22;10093;48.148;8.542;2023-08-06T11:52:57;14.10;99.90
19862;DHT22;10093;48.148;8.542;2023-08-06T11:55:25;14.00;99.90
19862;DHT22;10093;48.148;8.542;2023-08-06T11:57:51;14.20;99.90
19862;DHT22;10093;48.148;8.542;2023-08-06T12:00:17;14.30;99.90
19862;DHT22;10093;48.148;8.542;2023-08-06T12:02:46;14.00;99.90
19862;DHT22;10093;48.148;8.542;2023-08-06T12:05:19;14.00;99.90
19862;DHT22;10093;48.148;8.542;2023-08-06T12:07:52;14.00;99.90
19862;DHT22;10093;48.148;8.542;2023-08-06T12:10:19;14.30;99.90
19862;DHT22;10093;48.148;8.542;2023-08-06T12:12:48;14.80;99.90
19862;DHT22;10093;48.148;8.542;2023-08-06T12:15:14;15.30;99.90
19862;DHT22;10093;48.148;8.542;2023-08-06T12:17:39;15.30;99.90
19862;DHT22;10093;48.148;8.542;2023-08-06T12:20:06;15.20;99.90
19862;DHT22;10093;48.148;8.542;2023-08-06T12:22:33;15.30;99.90
19862;DHT22;10093;48.148;8.542;2023-08-06T12:25:05;15.90;99.90
19862;DHT22;10093;48.148;8.542;2023-08-06T12:27:34;16.60;99.90
19862;DHT22;10093;48.148;8.542;2023-08-06T12:30:00;17.20;99.90
19862;DHT22;10093;48.148;8.542;2023-08-06T12:32:26;18.20;99.90
19862;DHT22;10093;48.148;8.542;2023-08-06T12:34:52;18.50;99.90
19862;DHT22;10093;48.148;8.542;2023-08-06T12:37:17;18.70;99.90
19862;DHT22;10093;48.148;8.542;2023-08-06T12:39:43;19.40;99.90
19862;DHT22;10093;48.148;8.542;2023-08-06T12:42:08;19.30;99.90
19862;DHT22;10093;48.148;8.542;2023-08-06T12:44:35;19.20;99.90
19862;DHT22;10093;48.148;8.542;2023-08-06T12:47:01;19.50;99.90
19862;DHT22;10093;48.148;8.542;2023-08-06T12:49:27;19.10;99.90
19862;DHT22;10093;48.148;8.542;2023-08-06T12:51:53;18.30;99.90
19862;DHT22;10093;48.148;8.542;2023-08-06T12:54:19;17.90;99.90
19862;DHT22;10093;48.148;8.542;2023-08-06T12:56:46;17.70;99.90
19862;DHT22;10093;48.148;8.542;2023-08-06T12:59:15;17.40;99.90
19862;DHT22;10093;48.148;8.542;2023-08-06T13:01:41;16.50;99.90
19862;DHT22;10093;48.148;8.542;2023-08-06T13:04:06;17.10;99.90
19862;DHT22;10093;48.148;8.542;2023-08-06T13:06:32;17.50;99.90
19862;DHT22;10093;48.148;8.542;2023-08-06T13:09:09;17.90;99.90
19862;DHT22;10093;48.148;8.542;2023-08-06T13:11:36;17.50;99.90
19862;DHT22;10093;48.148;8.542;2023-08-06T13:14:10;17.00;99.90
19862;DHT22;10093;48.148;8.542;2023-08-06T13:16:37;15.70;99.90
19862;DHT22;10093;48.148;8.542;2023-08-06T13:19:03;15.40;99.90
19862;DHT22;10093;48.148;8.542;2023-08-06T13:21:59;15.30;99.90
19862;DHT22;10093;48.148;8.542;2023-08-06T13:24:26;15.20;99.90
19862;DHT22;10093;48.148;8.542;2023-08-06T13:26:52;15.30;99.90
19862;DHT22;10093;48.148;8.542;2023-08-06T13:29:18;15.70;99.90
19862;DHT22;10093;48.148;8.542;2023-08-06T13:31:44;16.10;99.90
19862;DHT22;10093;48.148;8.542;2023-08-06T13:34:09;15.80;99.90
19862;DHT22;10093;48.148;8.542;2023-08-06T13:36:35;15.40;99.90
19862;DHT22;10093;48.148;8.542;2023-08-06T13:39:00;15.30;99.90
19862;DHT22;10093;48.148;8.542;2023-08-06T13:41:26;15.20;99.90
19862;DHT22;10093;48.148;8.542;2023-08-06T13:43:52;15.10;99.90
19862;DHT22;10093;48.148;8.542;2023-08-06T13:46:18;15.20;99.90
19862;DHT22;10093;48.148;8.542;2023-08-06T13:48:46;15.20;99.90
19862;DHT22;10093;48.148;8.542;2023-08-06T13:51:12;15.40;99.90
19862;DHT22;10093;48.148;8.542;2023-08-06T13:53:41;15.40;99.90
19862;DHT22;10093;48.148;8.542;2023-08-06T13:56:08;15.10;99.90
19862;DHT22;10093;48.148;8.542;2023-08-06T13:58:35;15.20;99.90
19862;DHT22;10093;48.148;8.542;2023-08-06T14:01:00;15.40;99.90
19862;DHT22;10093;48.148;8.542;2023-08-06T14:03:26;15.20;99.90
19862;DHT22;10093;48.148;8.542;2023-08-06T14:05:52;14.90;99.90
19862;DHT22;10093;48.148;8.542;2023-08-06T14:08:20;14.50;99.90
19862;DHT22;10093;48.148;8.542;2023-08-06T14:10:46;14.20;99.90
19862;DHT22;10093;48.148;8.542;2023-08-06T14:13:12;14.00;99.90
19862;DHT22;10093;48.148;8.542;2023-08-06T14:15:38;13.80;99.90
19862;DHT22;10093;48.148;8.542;2023-08-06T14:18:06;14.00;99.90
19862;DHT22;10093;48.148;8.542;2023-08-06T14:20:34;14.10;99.90
19862;DHT22;10093;48.148;8.542;2023-08-06T14:22:59;14.10;99.90
19862;DHT22;10093;48.148;8.542;2023-08-06T14:25:25;14.50;99.90
19862;DHT22;10093;48.148;8.542;2023-08-06T14:27:51;15.10;99.90
19862;DHT22;10093;48.148;8.542;2023-08-06T14:30:16;15.20;99.90
19862;DHT22;10093;48.148;8.542;2023-08-06T14:32:42;15.70;99.90
19862;DHT22;10093;48.148;8.542;2023-08-06T14:35:08;16.50;99.90
19862;DHT22;10093;48.148;8.542;2023-08-06T14:37:33;17.20;99.90
19862;DHT22;10093;48.148;8.542;2023-08-06T14:39:59;17.40;99.90
19862;DHT22;10093;48.148;8.542;2023-08-06T14:42:25;17.40;99.90
19862;DHT22;10093;48.148;8.542;2023-08-06T14:44:50;18.10;99.90
19862;DHT22;10093;48.148;8.542;2023-08-06T14:47:16;18.10;99.90
19862;DHT22;10093;48.148;8.542;2023-08-06T14:49:42;17.90;99.90
19862;DHT22;10093;48.148;8.542;2023-08-06T14:52:07;17.70;99.90
19862;DHT22;10093;48.148;8.542;2023-08-06T14:54:33;17.60;99.90
19862;DHT22;10093;48.148;8.542;2023-08-06T14:56:59;17.10;99.90
19862;DHT22;10093;48.148;8.542;2023-08-06T14:59:24;16.20;99.90
19862;DHT22;10093;48.148;8.542;2023-08-06T15:01:50;15.00;99.90
19862;DHT22;10093;48.148;8.542;2023-08-06T15:04:17;14.70;99.90
19862;DHT22;10093;48.148;8.542;2023-08-06T15:06:44;14.90;99.90
19862;DHT22;10093;48.148;8.542;2023-08-06T15:09:09;15.10;99.90
19862;DHT22;10093;48.148;8.542;2023-08-06T15:11:35;15.40;99.90
19862;DHT22;10093;48.148;8.542;2023-08-06T15:14:01;15.60;99.90
19862;DHT22;10093;48.148;8.542;2023-08-06T15:16:27;15.80;99.90
19862;DHT22;10093;48.148;8.542;2023-08-06T15:18:53;15.80;99.90
19862;DHT22;10093;48.148;8.542;2023-08-06T15:21:18;15.60;99.90
19862;DHT22;10093;48.148;8.542;2023-08-06T15:23:44;15.50;99.90
19862;DHT22;10093;48.148;8.542;2023-08-06T15:26:10;15.20;99.90
19862;DHT22;10093;48.148;8.542;2023-08-06T15:28:35;15.00;99.90
19862;DHT22;10093;48.148;8.542;2023-08-06T15:31:01;15.00;99.90
19862;DHT22;10093;48.148;8.542;2023-08-06T15:33:29;14.90;99.90